Time;durP1;ratioP1;P1;durP2;ratioP2;P2;SDS_P1;SDS_P2;PMS_P1;PMS_P2;Temp;Humidity;BMP_temperature;BMP_pressure;BME280_temperature;BME280_humidity;BME280_pressure;Samples;Min_cycle;Max_cycle;Signal;HPM_P1;HPM_P2
2023/04/27 00:01:23;;;;;;;14.80;10.40;;;8.90;99.90;;;9.24;65.82;101971.56;5112282;28;20047;-74
2023/04/27 00:03:53;;;;;;;14.55;10.75;;;8.90;99.90;;;9.13;65.50;101943.19;5112534;28;20457;-74
2023/04/27 00:06:22;;;;;;;13.45;10.13;;;9.00;99.90;;;9.34;65.22;101968.22;5112723;28;20042;-74
2023/04/27 00:08:50;;;;;;;13.55;10.25;;;9.00;99.90;;;9.34;65.26;101962.94;5108442;28;20112;-74
2023/04/27 00:11:18;;;;;;;13.77;10.00;;;9.00;99.90;;;9.42;65.52;101966.63;5112521;28;20048;-74
2023/04/27 00:13:47;;;;;;;13.73;10.00;;;9.10;99.90;;;9.46;65.49;101965.81;5112238;28;20039;-74
2023/04/27 00:16:15;;;;;;;12.05;10.07;;;9.20;99.90;;;9.46;65.33;101989.56;5112372;28;20043;-74
2023/04/27 00:18:43;;;;;;;13.77;10.65;;;9.20;99.90;;;9.47;65.43;101972.84;5112604;28;20059;-74
2023/04/27 00:21:13;;;;;;;13.77;10.68;;;9.20;99.90;;;9.48;65.56;101971.09;5112267;28;20067;-74
2023/04/27 00:23:41;;;;;;;13.23;10.65;;;9.20;99.90;;;9.46;65.52;101954.34;5112384;28;20047;-73
2023/04/27 00:26:10;;;;;;;20.67;11.00;;;9.20;99.90;;;9.49;65.26;101960.56;5115886;28;20114;-74
2023/04/27 00:28:40;;;;;;;17.05;10.73;;;9.20;99.90;;;9.41;65.56;101950.72;5116211;28;20093;-75
2023/04/27 00:31:08;;;;;;;16.58;10.52;;;9.30;99.90;;;9.61;65.17;101959.88;5094093;28;20143;-73
2023/04/27 00:33:36;;;;;;;16.33;11.63;;;9.30;99.90;;;9.60;65.20;101964.28;5102733;28;20047;-74
2023/04/27 00:36:06;;;;;;;17.17;11.68;;;9.30;99.90;;;9.58;65.12;101963.34;5115949;28;20040;-73
2023/04/27 00:38:36;;;;;;;13.30;10.85;;;9.30;99.90;;;9.62;65.43;101959.91;5116005;28;20044;-74
2023/04/27 00:41:07;;;;;;;17.75;11.80;;;9.30;99.90;;;9.45;65.56;101947.28;5097539;28;20047;-74
2023/04/27 00:43:43;;;;;;;13.52;11.05;;;9.20;99.90;;;9.21;67.99;101947.75;5097707;28;20043;-73
2023/04/27 00:46:14;;;;;;;14.20;10.65;;;8.90;99.90;;;9.38;67.79;101956.84;5115865;28;20039;-74
2023/04/27 00:48:43;;;;;;;12.60;10.80;;;9.00;99.90;;;9.29;68.76;101954.03;5111877;28;20051;-74
2023/04/27 00:51:12;;;;;;;14.43;11.07;;;9.00;99.90;;;9.04;68.45;101941.25;5115710;28;20040;-74
2023/04/27 00:53:42;;;;;;;15.15;11.25;;;8.70;99.90;;;8.91;69.22;101952.44;5115240;28;20122;-74
2023/04/27 00:56:10;;;;;;;15.45;11.15;;;8.60;99.90;;;8.76;70.35;101952.13;5115636;28;20071;-74
2023/04/27 00:58:39;;;;;;;13.40;11.32;;;8.40;99.90;;;8.67;72.30;101950.19;5097055;28;20048;-74
2023/04/27 01:01:07;;;;;;;17.45;12.80;;;8.30;99.90;;;8.49;71.70;101952.47;5115254;28;20058;-74
2023/04/27 01:03:36;;;;;;;14.90;12.38;;;8.20;99.90;;;8.26;71.72;101951.06;5088510;28;20131;-74
2023/04/27 01:06:07;;;;;;;14.77;12.52;;;8.00;99.90;;;8.22;71.55;101943.91;5115389;28;20053;-74
2023/04/27 01:08:36;;;;;;;13.68;11.55;;;7.90;99.90;;;8.15;72.47;101937.59;5111664;28;20032;-74
2023/04/27 01:11:06;;;;;;;12.93;11.60;;;7.80;99.90;;;8.22;73.60;101943.91;5115405;28;20492;-74
2023/04/27 01:13:34;;;;;;;13.00;11.17;;;7.80;99.90;;;8.12;74.11;101931.38;5088818;28;20077;-74
2023/04/27 01:16:03;;;;;;;12.60;11.00;;;7.70;99.90;;;8.14;75.05;101929.66;5096922;28;20043;-74
2023/04/27 01:18:32;;;;;;;9.43;8.52;;;7.70;99.90;;;8.05;75.46;101930.34;5115178;28;20043;-74
2023/04/27 01:21:01;;;;;;;12.57;10.32;;;7.70;99.90;;;8.08;76.07;101927.78;5114906;28;20043;-74
2023/04/27 01:23:30;;;;;;;11.98;10.55;;;7.70;99.90;;;8.10;75.14;101925.19;5114975;28;20039;-74
2023/04/27 01:25:59;;;;;;;16.50;11.65;;;7.70;99.90;;;8.17;74.69;101921.81;5115351;28;20059;-74
2023/04/27 01:28:27;;;;;;;16.70;11.02;;;7.80;99.90;;;8.15;74.53;101921.78;5115334;28;20043;-74
2023/04/27 01:30:56;;;;;;;14.05;11.63;;;7.90;99.90;;;8.14;74.55;101922.66;5093599;28;20048;-74
2023/04/27 01:33:26;;;;;;;14.70;12.00;;;7.80;99.90;;;8.24;73.65;101926.38;5114923;28;20370;-74
2023/04/27 01:35:54;;;;;;;18.50;12.35;;;7.90;99.90;;;8.27;73.40;101917.66;5088016;28;20048;-74
2023/04/27 01:38:23;;;;;;;17.98;12.48;;;7.90;99.90;;;8.29;74.12;101916.84;5114750;28;20419;-74
2023/04/27 01:40:54;;;;;;;17.85;12.18;;;7.90;99.90;;;8.23;73.27;101922.84;5114742;28;20070;-74
2023/04/27 01:43:22;;;;;;;18.52;12.20;;;7.90;99.90;;;8.25;73.29;101916.75;5096390;28;20477;-74
2023/04/27 01:45:50;;;;;;;20.30;11.85;;;7.90;99.90;;;8.18;73.00;101913.06;5114406;28;20074;-74
2023/04/27 01:48:19;;;;;;;16.55;11.10;;;7.90;99.90;;;8.19;72.82;101904.28;5092659;28;20066;-73
2023/04/27 01:50:47;;;;;;;14.93;11.43;;;7.90;99.90;;;8.15;72.72;101911.25;5114721;28;20042;-74
2023/04/27 01:53:15;;;;;;;15.70;10.70;;;7.90;99.90;;;8.07;72.74;101882.97;5089190;28;20078;-74
2023/04/27 01:55:43;;;;;;;18.27;11.65;;;8.00;99.90;;;8.28;72.37;101906.28;5114546;28;20122;-74
2023/04/27 01:58:13;;;;;;;18.98;11.45;;;8.00;99.90;;;8.20;72.09;101912.25;5087918;28;20050;-74
2023/04/27 02:00:42;;;;;;;14.73;11.48;;;8.00;99.90;;;8.11;72.58;101906.75;5096145;28;20055;-74
2023/04/27 02:03:10;;;;;;;17.42;11.93;;;7.90;99.90;;;7.94;72.97;101902.88;5113828;28;20546;-74
2023/04/27 02:05:39;;;;;;;18.35;11.48;;;7.80;99.90;;;7.87;73.51;101900.97;5095953;28;20043;-74
2023/04/27 02:08:07;;;;;;;15.40;11.32;;;7.60;99.90;;;7.61;74.52;101888.91;5114215;28;20032;-74
2023/04/27 02:10:36;;;;;;;17.33;11.82;;;7.40;99.90;;;7.22;75.29;101891.44;5095855;28;20079;-74
2023/04/27 02:13:05;;;;;;;18.42;10.75;;;7.10;99.90;;;7.12;76.04;101878.03;5095809;28;20047;-74
2023/04/27 02:15:35;;;;;;;16.58;10.60;;;6.90;99.90;;;6.71;76.74;101861.19;5109945;28;20044;-74
2023/04/27 02:18:04;;;;;;;13.50;10.23;;;6.70;99.90;;;6.71;77.77;101887.47;5092319;28;20134;-74
2023/04/27 02:20:33;;;;;;;17.77;11.02;;;6.50;99.90;;;6.65;78.44;101894.28;5095360;28;20048;-74
2023/04/27 02:23:01;;;;;;;16.10;10.32;;;6.40;99.90;;;6.60;78.86;101890.66;5087412;28;20047;-73
2023/04/27 02:25:30;;;;;;;14.68;10.75;;;6.40;99.90;;;6.54;78.75;101875.59;5095583;28;20036;-74
2023/04/27 02:27:58;;;;;;;16.55;11.13;;;6.40;99.90;;;6.50;78.66;101879.00;5113585;28;20044;-74
2023/04/27 02:30:27;;;;;;;19.17;10.95;;;6.40;99.90;;;6.32;79.67;101881.09;5095517;28;20051;-73
2023/04/27 02:33:00;;;;;;;18.30;11.40;;;6.20;99.90;;;6.31;80.57;101884.53;5087504;28;20071;-74
2023/04/27 02:35:28;;;;;;;15.82;11.48;;;6.10;99.90;;;6.30;80.48;101875.78;5088121;28;20079;-74
2023/04/27 02:38:00;;;;;;;18.52;11.93;;;6.10;99.90;;;6.24;81.56;101885.22;5092116;28;20047;-74
2023/04/27 02:40:28;;;;;;;16.38;10.80;;;6.10;99.90;;;6.31;81.74;101877.56;5113659;28;20065;-74
2023/04/27 02:42:57;;;;;;;16.60;12.20;;;6.10;99.90;;;6.24;81.66;101882.59;5113664;28;20065;-74
2023/04/27 02:45:27;;;;;;;12.75;10.85;;;6.10;99.90;;;6.36;82.03;101883.84;5113493;28;20435;-74
2023/04/27 02:47:55;;;;;;;17.38;11.50;;;6.10;99.90;;;6.41;81.56;101877.84;5112590;28;20053;-74
2023/04/27 02:50:25;;;;;;;17.88;11.70;;;6.20;99.90;;;6.47;81.59;101885.88;5095242;28;20055;-73
2023/04/27 02:52:54;;;;;;;17.57;11.97;;;6.30;99.90;;;6.55;81.31;101880.00;5113534;28;20051;-74
2023/04/27 02:55:22;;;;;;;17.65;11.23;;;6.40;99.90;;;6.66;80.88;101890.81;5113081;28;20277;-74
2023/04/27 02:57:50;;;;;;;18.25;11.95;;;6.40;99.90;;;6.45;81.17;101885.84;5086900;28;20052;-73
2023/04/27 03:00:19;;;;;;;14.15;10.68;;;6.30;99.90;;;6.46;81.47;101878.84;5094855;28;20047;-73
2023/04/27 03:02:47;;;;;;;20.92;10.57;;;6.30;99.90;;;6.53;80.86;101891.31;5086236;28;20079;-74
2023/04/27 03:05:16;;;;;;;15.60;11.15;;;6.30;99.90;;;6.55;80.61;101886.97;5112695;28;20044;-73
2023/04/27 03:07:46;;;;;;;18.08;11.73;;;6.40;99.90;;;6.60;80.26;101891.50;5086208;28;20058;-73
2023/04/27 03:10:14;;;;;;;16.47;10.57;;;6.50;99.90;;;6.37;80.28;101885.63;5112391;28;20046;-74
2023/04/27 03:12:43;;;;;;;15.80;11.73;;;6.30;99.90;;;6.34;80.65;101893.44;5112588;28;20282;-74
2023/04/27 03:15:11;;;;;;;14.63;11.43;;;6.20;99.90;;;6.33;80.24;101896.88;5112356;28;20170;-73
2023/04/27 03:17:40;;;;;;;13.45;10.73;;;6.20;99.90;;;6.25;80.62;101901.00;5112697;28;20122;-74
2023/04/27 03:20:11;;;;;;;18.77;11.32;;;6.10;99.90;;;6.18;81.04;101906.94;5112630;28;20040;-74
2023/04/27 03:22:39;;;;;;;16.23;10.57;;;6.00;99.90;;;6.17;80.83;101904.28;5109132;28;20126;-74
2023/04/27 03:25:09;;;;;;;16.50;10.43;;;6.00;99.90;;;6.21;80.30;101888.63;5112625;28;20118;-74
2023/04/27 03:27:39;;;;;;;15.02;11.15;;;6.10;99.90;;;6.29;80.46;101899.41;5112638;28;20035;-73
2023/04/27 03:30:09;;;;;;;16.15;11.00;;;6.10;99.90;;;6.27;80.32;101896.69;5112703;28;20043;-73
2023/04/27 03:32:38;;;;;;;;;;;6.20;99.90;;;6.38;80.07;101902.28;5094300;28;20143;-74
2023/04/27 03:35:08;;;;;;;16.80;10.95;;;6.20;99.90;;;6.28;80.53;101905.47;5112812;28;20014;-73
2023/04/27 03:37:36;;;;;;;17.25;11.85;;;6.10;99.90;;;6.24;80.75;101901.88;5113128;28;20046;-74
2023/04/27 03:40:08;;;;;;;16.50;10.50;;;6.00;99.90;;;6.23;80.40;101894.81;5082560;28;20051;-74
2023/04/27 03:42:37;;;;;;;15.27;10.43;;;6.10;99.90;;;6.27;80.60;101899.31;5103153;28;20071;-74
2023/04/27 03:45:07;;;;;;;14.43;10.65;;;6.10;99.90;;;6.33;80.00;101899.50;5093976;28;20421;-74
2023/04/27 03:47:35;;;;;;;15.63;10.38;;;6.20;99.90;;;6.31;79.92;101897.69;5112382;28;20051;-74
2023/04/27 03:50:04;;;;;;;13.48;10.90;;;6.10;99.90;;;6.27;79.79;101898.47;5112683;28;20032;-74
2023/04/27 03:52:33;;;;;;;13.20;10.13;;;6.10;99.90;;;6.41;79.69;101894.47;5112256;28;20056;-73
2023/04/27 03:55:01;;;;;;;12.88;10.38;;;6.20;99.90;;;6.48;79.19;101904.34;5093921;28;20065;-73
2023/04/27 03:57:31;;;;;;;16.23;11.02;;;6.30;99.90;;;6.59;78.83;101912.50;5094159;28;20068;-73
2023/04/27 04:00:00;;;;;;;15.63;10.52;;;6.40;99.90;;;6.59;78.51;101899.38;5090340;28;20059;-73
2023/04/27 04:02:28;;;;;;;15.38;11.07;;;6.50;99.90;;;6.68;78.13;101904.91;5097612;28;20122;-74
2023/04/27 04:04:57;;;;;;;16.42;11.15;;;6.50;99.90;;;6.69;78.04;101914.56;5089500;28;20043;-73
2023/04/27 04:07:26;;;;;;;14.43;10.90;;;6.50;99.90;;;6.75;77.65;101920.88;5097639;28;20130;-74
2023/04/27 04:09:54;;;;;;;14.27;10.77;;;6.50;99.90;;;6.71;77.63;101921.66;5115867;28;20044;-74
2023/04/27 04:12:23;;;;;;;18.15;11.77;;;6.50;99.90;;;6.25;77.56;101829.22;5097363;28;20089;-74
2023/04/27 04:14:53;;;;;;;15.77;10.90;;;6.50;99.90;;;6.84;77.65;101929.00;5089250;28;20138;-74
2023/04/27 04:17:21;;;;;;;14.67;10.67;;;6.60;99.90;;;6.91;77.02;101925.69;5115882;28;20240;-74
2023/04/27 04:19:49;;;;;;;17.00;11.57;;;6.70;99.90;;;7.13;76.54;101922.81;5115408;28;20285;-74
2023/04/27 04:22:18;;;;;;;16.75;10.25;;;6.90;99.90;;;7.27;76.01;101923.16;5115676;28;20040;-74
2023/04/27 04:24:46;;;;;;;18.08;11.30;;;7.10;99.90;;;7.35;75.35;101926.88;5111547;28;20129;-74
2023/04/27 04:27:16;;;;;;;17.73;11.20;;;7.20;99.90;;;7.39;74.84;101922.59;5097208;28;20480;-74
2023/04/27 04:29:44;;;;;;;13.75;10.35;;;7.20;99.90;;;7.48;74.57;101930.69;5097345;28;20071;-74
2023/04/27 04:32:16;;;;;;;14.50;10.85;;;7.30;99.90;;;7.60;74.20;101931.91;5097530;28;20434;-74
2023/04/27 04:34:49;;;;;;;15.18;10.45;;;7.40;99.90;;;7.69;74.14;101936.50;5105952;28;20071;-74
2023/04/27 04:37:18;;;;;;;12.48;10.45;;;7.50;99.90;;;7.73;73.73;101922.53;5093735;28;20447;-73
2023/04/27 04:39:46;;;;;;;15.52;10.32;;;7.60;99.90;;;7.78;73.34;101932.31;5096933;28;20074;-74
2023/04/27 04:42:14;;;;;;;14.65;9.80;;;7.60;99.90;;;7.89;72.96;101937.88;5111373;28;20040;-73
2023/04/27 04:44:44;;;;;;;14.30;10.63;;;7.70;99.90;;;7.86;73.16;101916.69;5096525;28;20493;-74
2023/04/27 04:47:13;;;;;;;14.95;11.30;;;7.80;99.90;;;8.05;73.13;101942.66;5115265;28;20049;-74
2023/04/27 04:49:42;;;;;;;16.42;11.45;;;7.80;99.90;;;7.98;72.55;101941.59;5074496;28;20098;-74
2023/04/27 04:52:10;;;;;;;16.38;10.68;;;7.80;99.90;;;8.10;72.42;101941.00;5065251;28;20420;-74
2023/04/27 04:54:39;;;;;;;17.95;11.10;;;7.90;99.90;;;8.10;72.16;101951.53;5073053;28;20163;-73
2023/04/27 04:57:07;;;;;;;16.65;11.02;;;7.90;99.90;;;7.88;72.40;101943.97;5065088;28;20050;-74
2023/04/27 04:59:35;;;;;;;14.90;10.20;;;7.80;99.90;;;7.73;72.81;101949.78;5072922;28;20040;-74
2023/04/27 05:02:04;;;;;;;15.27;10.70;;;7.60;99.90;;;7.60;72.96;101952.97;5061508;28;20041;-74
2023/04/27 05:04:33;;;;;;;15.27;10.52;;;7.50;99.90;;;7.27;73.45;101942.47;5073806;28;20071;-74
2023/04/27 05:07:03;;;;;;;14.07;10.50;;;7.30;99.90;;;7.25;74.31;101953.81;5070726;28;20060;-74
2023/04/27 05:09:31;;;;;;;15.73;10.60;;;7.10;99.90;;;7.16;74.66;101948.31;5073076;28;20497;-74
2023/04/27 05:12:02;;;;;;;14.90;11.05;;;7.00;99.90;;;7.14;74.72;101940.34;5073742;28;20044;-73
2023/04/27 05:14:30;;;;;;;18.00;11.45;;;7.00;99.90;;;7.12;74.46;101949.06;5074126;28;20105;-74
2023/04/27 05:16:58;;;;;;;14.68;10.98;;;7.00;99.90;;;7.12;75.02;101954.34;5074012;28;20059;-74
2023/04/27 05:19:29;;;;;;;14.20;11.60;;;6.90;99.90;;;7.30;74.99;101962.69;5073963;28;20048;-74
2023/04/27 05:22:00;;;;;;;15.73;10.80;;;7.00;99.90;;;7.62;74.66;101976.69;5073772;28;20068;-74
2023/04/27 05:24:28;;;;;;;16.00;10.82;;;7.30;99.90;;;7.86;73.87;101972.91;5073989;28;20129;-74
2023/04/27 05:26:56;;;;;;;19.45;11.00;;;7.60;99.90;;;8.05;72.88;101969.84;5065691;28;20051;-74
2023/04/27 05:29:27;;;;;;;16.03;11.30;;;7.80;99.90;;;8.25;72.29;101972.09;5072540;28;20121;-73
2023/04/27 05:31:55;;;;;;;14.52;11.23;;;8.00;99.90;;;8.34;71.74;101959.13;5073693;28;20044;-74
2023/04/27 05:34:24;;;;;;;14.00;11.35;;;8.10;99.90;;;8.48;71.16;101955.94;5073357;28;20500;-74
2023/04/27 05:36:52;;;;;;;20.15;11.57;;;8.30;99.90;;;8.44;70.54;101958.50;5073602;28;20408;-74
2023/04/27 05:39:22;;;;;;;15.90;11.80;;;8.30;99.90;;;8.39;70.57;101966.28;5073391;28;20040;-74
2023/04/27 05:41:50;;;;;;;14.25;10.30;;;8.20;99.90;;;8.37;70.77;101970.63;5073267;28;20472;-73
2023/04/27 05:44:19;;;;;;;18.52;11.63;;;8.20;99.90;;;8.53;70.56;101958.69;5073238;28;20500;-74
2023/04/27 05:46:47;;;;;;;12.40;10.50;;;8.30;99.90;;;8.55;70.74;101971.03;5073137;28;20054;-73
2023/04/27 05:49:16;;;;;;;11.63;10.40;;;8.30;99.90;;;8.56;71.39;101970.19;5103502;28;20051;-74
2023/04/27 05:51:44;;;;;;;13.50;10.27;;;8.20;99.90;;;8.78;70.60;101969.78;5114129;28;20090;-73
2023/04/27 05:54:12;;;;;;;14.93;10.65;;;8.40;99.90;;;8.81;70.07;101976.84;5114481;28;20143;-74
2023/04/27 05:56:42;;;;;;;19.13;12.07;;;8.50;99.90;;;8.35;70.43;101974.97;5114199;28;20062;-74
2023/04/27 05:59:11;;;;;;;19.35;13.48;;;8.20;99.90;;;8.14;71.87;101978.00;5114068;28;20477;-74
2023/04/27 06:01:39;;;;;;;18.98;12.32;;;7.90;99.90;;;7.96;71.94;101980.19;5114281;28;20089;-74
2023/04/27 06:04:08;;;;;;;20.40;13.98;;;7.70;99.90;;;7.94;73.43;101976.63;5087297;28;20075;-74
2023/04/27 06:06:37;;;;;;;16.60;12.15;;;7.60;99.90;;;8.05;73.25;101982.16;5113628;28;20036;-74
2023/04/27 06:09:05;;;;;;;19.77;12.73;;;7.60;99.90;;;8.08;72.74;101977.84;5113292;28;20395;-74
2023/04/27 06:11:34;;;;;;;15.75;11.75;;;7.70;99.90;;;7.91;73.67;101983.56;5113967;28;20046;-74
2023/04/27 06:14:04;;;;;;;19.67;12.50;;;7.60;99.90;;;8.01;74.27;101988.22;5109553;28;20070;-75
2023/04/27 06:16:32;;;;;;;18.77;11.47;;;7.60;99.90;;;8.05;74.01;101979.53;5113304;28;20089;-75
2023/04/27 06:19:01;;;;;;;17.50;10.93;;;7.70;99.90;;;7.95;74.06;101981.06;5113243;28;20071;-73
2023/04/27 06:21:32;;;;;;;14.15;11.07;;;7.60;99.90;;;8.15;74.89;101981.50;5113196;28;20043;-73
2023/04/27 06:24:01;;;;;;;16.75;11.55;;;7.70;99.90;;;8.20;74.58;101970.25;5113532;28;20421;-73
2023/04/27 06:26:30;;;;;;;15.63;10.55;;;7.90;99.90;;;8.54;73.86;101968.34;5094861;28;20074;-74
2023/04/27 06:28:58;;;;;;;14.15;10.55;;;8.10;99.90;;;8.72;73.85;101972.28;5113087;28;20370;-72
2023/04/27 06:31:28;;;;;;;16.15;10.40;;;8.30;99.90;;;9.05;72.26;101974.72;5113362;28;20111;-71
2023/04/27 06:33:56;;;;;;;13.73;10.27;;;8.60;99.90;;;8.77;72.27;101967.09;5109456;28;20047;-71
2023/04/27 06:36:26;;;;;;;20.08;10.95;;;8.50;99.90;;;8.67;73.24;101965.13;5113360;28;20048;-72
2023/04/27 06:38:55;;;;;;;14.30;10.27;;;8.40;99.90;;;8.56;72.22;101964.00;5113382;28;20031;-72
2023/04/27 06:41:24;;;;;;;14.38;10.25;;;8.30;99.90;;;8.71;72.71;101973.13;5113186;28;20044;-72
2023/04/27 06:43:53;;;;;;;17.05;9.50;;;8.40;99.90;;;8.42;70.09;101976.88;5112590;28;20075;-73
2023/04/27 06:46:26;;;;;;;13.65;9.00;;;8.20;99.90;;;8.33;70.30;101970.53;5112588;28;20147;-73
2023/04/27 06:48:55;;;;;;;17.83;9.82;;;8.10;99.90;;;8.52;71.29;101972.69;5082719;28;20553;-74
2023/04/27 06:51:25;;;;;;;13.73;8.95;;;8.20;99.90;;;8.84;70.35;101977.81;5108558;28;20069;-74
2023/04/27 06:53:56;;;;;;;9.55;8.60;;;8.50;99.90;;;9.25;70.37;101980.38;5083004;28;20489;-74
2023/04/27 06:56:24;;;;;;;13.93;8.50;;;8.90;99.90;;;8.90;68.43;101967.34;5113105;28;20553;-76
2023/04/27 06:58:53;;;;;;;16.73;9.18;;;8.80;99.90;;;8.75;68.38;101976.75;5092807;28;20497;-75
2023/04/27 07:01:21;;;;;;;13.23;8.18;;;8.60;99.90;;;8.48;68.91;101977.03;5112476;28;20122;-74
2023/04/27 07:03:51;;;;;;;11.13;8.20;;;8.30;99.90;;;8.52;69.77;101972.69;5094360;28;20063;-74
2023/04/27 07:06:21;;;;;;;12.73;8.40;;;8.20;99.90;;;8.40;68.95;101975.09;5112621;28;20047;-74
2023/04/27 07:08:49;;;;;;;14.23;7.68;;;8.20;99.90;;;8.40;68.89;101983.88;5112347;28;20048;-80
2023/04/27 07:11:17;;;;;;;10.65;8.18;;;8.20;99.90;;;8.58;68.77;101970.19;5112392;28;20032;-76
2023/04/27 07:13:46;;;;;;;11.90;7.78;;;8.40;99.90;;;8.59;67.41;101978.16;5112370;28;20442;-80
2023/04/27 07:16:15;;;;;;;19.20;7.93;;;8.30;99.90;;;8.78;68.07;101975.06;5112322;28;20070;-74
2023/04/27 07:18:44;;;;;;;11.15;7.65;;;8.50;99.90;;;8.88;67.97;101979.63;5112128;28;20044;-75
2023/04/27 07:21:14;;;;;;;14.55;7.80;;;8.60;99.90;;;8.87;64.80;101950.59;5112321;28;20043;-75
2023/04/27 07:23:42;;;;;;;10.77;7.20;;;8.70;99.90;;;9.13;65.37;101975.75;5112119;28;20092;-74
2023/04/27 07:26:11;;;;;;;10.80;7.97;;;8.90;99.90;;;8.99;65.74;101964.03;5112200;28;20043;-71
2023/04/27 07:28:40;;;;;;;12.68;8.02;;;8.90;99.90;;;9.07;64.54;101965.06;5094338;28;20097;-71
2023/04/27 07:31:08;;;;;;;11.35;7.70;;;8.90;99.90;;;9.50;64.47;101979.94;5112361;28;20067;-72
2023/04/27 07:33:37;;;;;;;14.27;7.75;;;9.20;99.90;;;9.40;64.43;101972.72;5114188;28;20108;-71
2023/04/27 07:36:06;;;;;;;14.15;8.25;;;9.10;99.90;;;9.35;66.89;101948.88;5112222;28;20047;-67
2023/04/27 07:38:37;;;;;;;11.13;8.05;;;9.20;99.90;;;9.36;63.38;101934.81;5116120;28;20043;-71
2023/04/27 07:41:06;;;;;;;9.60;7.18;;;9.30;99.90;;;9.58;64.72;101973.06;5116386;28;20048;-67
2023/04/27 07:43:35;;;;;;;13.82;7.43;;;9.30;99.90;;;9.31;63.86;101975.22;5116147;28;20051;-71
2023/04/27 07:46:04;;;;;;;16.42;7.68;;;9.20;99.90;;;9.05;62.86;101966.78;5116313;28;20039;-69
2023/04/27 07:48:32;;;;;;;8.40;6.80;;;8.90;99.90;;;9.16;63.76;101974.88;5116023;28;20059;-71
2023/04/27 07:51:01;;;;;;;13.73;7.13;;;8.90;99.90;;;9.27;63.08;101973.38;5116308;28;20081;-70
2023/04/27 07:53:30;;;;;;;13.23;7.00;;;9.00;99.90;;;9.40;63.00;101978.00;5097842;28;20133;-71
2023/04/27 07:55:59;;;;;;;9.30;6.95;;;9.10;99.90;;;9.32;62.18;101967.31;5116035;28;20431;-76
2023/04/27 07:58:28;;;;;;;16.67;7.80;;;9.10;99.90;;;9.58;65.09;101979.19;5112594;28;20052;-71
2023/04/27 08:00:56;;;;;;;10.27;6.22;;;9.20;99.90;;;9.82;62.19;101971.72;5116066;28;20036;-69
2023/04/27 08:03:25;;;;;;;12.20;7.22;;;9.50;99.90;;;10.06;62.92;101978.25;5116290;28;20051;-71
2023/04/27 08:05:53;;;;;;;17.02;7.38;;;9.70;99.90;;;9.83;61.05;101968.19;5115761;28;20105;-70
2023/04/27 08:08:22;;;;;;;12.65;7.07;;;9.70;99.90;;;9.85;61.25;101955.88;5115939;28;20047;-73
2023/04/27 08:10:51;;;;;;;14.90;7.07;;;9.60;99.90;;;10.05;61.57;101958.84;5115607;28;20390;-70
2023/04/27 08:13:21;;;;;;;12.23;6.90;;;9.80;99.90;;;10.07;60.36;101961.50;5115806;28;20048;-71
2023/04/27 08:15:57;;;;;;;7.40;6.18;;;9.80;99.90;;;9.88;59.68;101958.59;5115960;28;20079;-71
2023/04/27 08:18:26;;;;;;;11.98;6.70;;;9.70;99.90;;;9.64;58.20;101962.59;5112634;28;20131;-71
2023/04/27 08:20:54;;;;;;;11.02;7.05;;;9.50;99.90;;;10.06;61.00;101965.03;5115313;28;20051;-70
2023/04/27 08:23:23;;;;;;;8.65;5.95;;;9.60;99.90;;;9.94;60.11;101953.41;5115831;28;20036;-68
2023/04/27 08:25:51;;;;;;;12.15;6.90;;;9.80;99.90;;;9.97;60.79;101948.16;5115098;28;20043;-65
2023/04/27 08:28:22;;;;;;;12.10;6.43;;;9.80;99.90;;;10.13;57.86;101962.53;5115465;28;20110;-73
2023/04/27 08:30:50;;;;;;;11.23;6.05;;;9.80;99.90;;;10.23;55.59;101959.16;5115535;28;20123;-72
2023/04/27 08:33:19;;;;;;;10.48;6.95;;;10.00;99.90;;;10.06;57.96;101957.09;5115591;28;20046;-76
2023/04/27 08:35:47;;;;;;;8.40;6.25;;;9.90;99.90;;;10.09;57.75;101970.34;5115188;28;20406;-72
2023/04/27 08:38:15;;;;;;;11.07;6.50;;;9.80;99.90;;;9.97;57.09;101952.53;5111123;28;20126;-75
2023/04/27 08:40:44;;;;;;;10.00;6.55;;;9.80;99.90;;;10.10;56.92;101958.97;5114928;28;20066;-73
2023/04/27 08:43:12;;;;;;;8.85;7.00;;;9.80;99.90;;;10.42;57.61;101955.00;5088753;28;20143;-70
2023/04/27 08:45:49;;;;;;;9.40;6.32;;;10.00;99.90;;;10.71;57.05;101958.91;5113961;28;20047;-70
2023/04/27 08:48:19;;;;;;;10.10;6.43;;;10.30;99.90;;;10.36;56.27;101939.03;5114885;28;20040;-71
2023/04/27 08:50:51;;;;;;;9.50;6.50;;;10.20;99.90;;;10.26;55.87;101948.59;5115129;28;20113;-72
2023/04/27 08:53:21;;;;;;;10.05;6.20;;;10.00;99.90;;;10.38;57.66;101947.88;5111221;28;20047;-72
2023/04/27 08:55:50;;;;;;;8.50;6.20;;;10.10;99.90;;;10.65;53.35;101950.91;5115245;28;20051;-70
2023/04/27 08:58:18;;;;;;;11.10;6.20;;;10.30;99.90;;;10.74;54.75;101951.03;5114800;28;20299;-70
2023/04/27 09:00:49;;;;;;;7.10;6.40;;;10.50;99.90;;;10.29;53.59;101947.78;5096419;28;20122;-70
2023/04/27 09:03:23;;;;;;;10.55;6.63;;;10.10;99.90;;;10.25;52.47;101951.25;5088360;28;20084;-66
2023/04/27 09:05:52;;;;;;;9.10;6.68;;;10.00;99.90;;;10.40;53.22;101933.81;5093004;28;20076;-68
2023/04/27 09:08:44;;;;;;;9.93;7.13;;;10.20;99.90;;;10.47;52.91;101940.09;5112225;28;20395;-69
2023/04/27 09:11:13;;;;;;;10.73;7.00;;;10.20;99.90;;;10.55;52.71;101944.59;5115058;28;20114;-70
2023/04/27 09:13:44;;;;;;;13.48;6.65;;;10.30;99.90;;;10.72;55.71;101915.72;5110259;28;20089;-69
2023/04/27 09:16:14;;;;;;;12.82;6.95;;;10.40;99.90;;;10.73;52.67;101936.00;5111022;28;20035;-69
2023/04/27 09:18:44;;;;;;;11.60;7.38;;;10.50;99.90;;;10.47;52.62;101934.81;5114370;28;20052;-70
2023/04/27 09:21:23;;;;;;;10.23;7.03;;;10.30;99.90;;;10.59;52.58;101946.41;5114641;28;20071;-70
2023/04/27 09:23:51;;;;;;;9.18;6.22;;;10.30;99.90;;;10.35;52.72;101879.09;5114553;28;20185;-71
2023/04/27 09:26:22;;;;;;;9.18;6.68;;;10.40;99.90;;;10.89;53.29;101943.28;5110559;28;20097;-71
2023/04/27 09:28:51;;;;;;;;;;;10.70;99.90;;;10.98;53.91;101914.25;5114408;28;20044;-70
2023/04/27 09:31:21;;;;;;;7.95;6.75;;;10.80;99.90;;;11.03;52.91;101954.91;5096006;28;19920;-72
2023/04/27 09:33:56;;;;;;;11.05;6.45;;;10.80;99.90;;;10.85;51.43;101899.09;5114474;28;20050;-66
2023/04/27 09:36:25;;;;;;;9.75;6.95;;;10.80;99.90;;;10.65;50.08;101868.88;5114314;28;20043;-68
2023/04/27 09:38:54;;;;;;;9.63;6.60;;;10.90;99.90;;;10.88;51.95;101901.78;5092518;28;20143;-69
2023/04/27 09:41:23;;;;;;;9.32;7.03;;;10.90;99.90;;;11.30;52.26;101952.56;5109912;28;20457;-69
2023/04/27 09:43:53;;;;;;;8.52;6.70;;;11.00;99.90;;;11.41;51.00;101950.00;5096032;28;20089;-70
2023/04/27 09:46:28;;;;;;;12.55;7.13;;;11.10;99.90;;;10.98;50.16;101951.31;5113934;28;20035;-69
2023/04/27 09:48:58;;;;;;;9.10;7.28;;;10.80;99.90;;;11.04;51.24;101954.03;5095731;28;20055;-68
2023/04/27 09:51:26;;;;;;;10.15;7.78;;;10.70;99.90;;;10.98;52.02;101937.16;5114011;28;20071;-68
2023/04/27 09:54:00;;;;;;;9.85;7.70;;;10.70;99.90;;;11.55;52.50;101941.31;5095421;28;20074;-69
2023/04/27 09:56:42;;;;;;;12.98;7.65;;;11.10;99.90;;;11.60;52.44;101951.94;5083604;28;20101;-67
2023/04/27 09:59:33;;;;;;;9.93;7.32;;;11.30;99.90;;;11.39;50.74;101934.09;5113904;28;20044;-60
2023/04/27 10:02:03;;;;;;;;;;;11.10;99.90;;;11.48;50.93;101938.56;5112042;28;20042;-61
2023/04/27 10:05:27;;;;;;;10.73;7.45;;;11.20;99.90;;;11.57;49.97;101947.50;5110672;28;19965;-62
2023/04/27 10:07:56;;;;;;;8.45;7.18;;;11.30;99.90;;;11.68;50.04;101945.88;5077700;28;20055;-61
2023/04/27 10:10:25;;;;;;;13.70;7.15;;;11.40;99.90;;;11.72;48.98;101939.72;5094956;28;20400;-62
2023/04/27 10:13:00;;;;;;;9.95;7.28;;;11.50;99.90;;;12.10;51.28;101941.78;5113285;28;20093;-63
2023/04/27 10:15:30;;;;;;;12.05;7.63;;;11.60;99.90;;;12.06;49.84;101943.50;5109871;28;20050;-62
2023/04/27 10:18:06;;;;;;;10.48;7.30;;;11.70;99.90;;;11.82;48.65;101939.78;5113047;28;20549;-62
2023/04/27 10:20:37;;;;;;;11.65;7.15;;;11.60;99.90;;;11.78;47.84;101949.47;5086845;28;20048;-61
2023/04/27 10:23:05;;;;;;;9.20;7.30;;;11.50;99.90;;;11.77;47.82;101943.28;5113126;28;20477;-61
2023/04/27 10:25:40;;;;;;;11.52;7.55;;;11.50;99.90;;;11.50;47.04;101912.97;5109370;28;20118;-60